Time;durP1;ratioP1;P1;durP2;ratioP2;P2;SDS_P1;SDS_P2;PMS_P1;PMS_P2;Temp;Humidity;BMP_temperature;BMP_pressure;BME280_temperature;BME280_humidity;BME280_pressure;Samples;Min_cycle;Max_cycle;Signal;HPM_P1;HPM_P2
2021/05/11 00:01:25;;;;;;;0.70;0.70;;;17.30;84.20;;;;;;5017980;28;20030;-79
2021/05/11 00:03:51;;;;;;;1.52;0.70;;;17.20;85.40;;;;;;5040999;28;20039;-78
2021/05/11 00:06:17;;;;;;;1.02;0.90;;;17.10;86.40;;;;;;5038399;28;20049;-79
2021/05/11 00:08:43;;;;;;;0.88;0.70;;;17.10;85.20;;;;;;5026907;28;20037;-78
2021/05/11 00:11:08;;;;;;;0.93;0.90;;;17.10;86.60;;;;;;5002942;28;20041;-77
2021/05/11 00:13:34;;;;;;;1.63;0.90;;;17.10;87.50;;;;;;5055155;28;20048;-78
2021/05/11 00:16:00;;;;;;;1.00;0.90;;;17.00;88.10;;;;;;5048341;28;20036;-78
2021/05/11 00:18:26;;;;;;;2.83;0.70;;;16.90;89.70;;;;;;5054553;28;20029;-79
2021/05/11 00:20:52;;;;;;;1.15;0.80;;;16.90;90.50;;;;;;5066154;28;20037;-78
2021/05/11 00:23:18;;;;;;;0.80;0.70;;;16.80;90.90;;;;;;5054179;28;20431;-79
2021/05/11 00:25:43;;;;;;;1.83;1.23;;;16.60;91.20;;;;;;5036101;28;20026;-78
2021/05/11 00:28:09;;;;;;;3.53;0.80;;;16.60;92.20;;;;;;5024584;28;20038;-78
2021/05/11 00:30:35;;;;;;;2.17;1.02;;;16.60;93.10;;;;;;5033070;28;20030;-77
2021/05/11 00:33:00;;;;;;;2.50;0.68;;;16.50;93.80;;;;;;5027402;28;20029;-78
2021/05/11 00:35:26;;;;;;;0.80;0.70;;;16.40;94.80;;;;;;5022171;28;20069;-78
2021/05/11 00:37:52;;;;;;;1.17;0.70;;;16.30;95.90;;;;;;5031675;28;20045;-79
2021/05/11 00:40:17;;;;;;;0.90;0.75;;;16.20;96.60;;;;;;5031271;28;20021;-78
2021/05/11 00:42:43;;;;;;;0.90;0.80;;;16.10;96.70;;;;;;5030140;28;20456;-78
2021/05/11 00:45:09;;;;;;;1.10;0.70;;;16.20;97.70;;;;;;5037573;28;20127;-78
2021/05/11 00:47:35;;;;;;;2.53;0.75;;;16.10;97.80;;;;;;5050809;28;20048;-79
2021/05/11 00:50:01;;;;;;;0.85;0.80;;;16.20;97.80;;;;;;5039795;28;20029;-79
2021/05/11 00:52:28;;;;;;;0.95;0.80;;;16.20;98.10;;;;;;5051517;28;20109;-79
2021/05/11 00:54:54;;;;;;;6.97;0.60;;;16.20;97.90;;;;;;5032573;28;20029;-78
2021/05/11 00:57:20;;;;;;;2.78;0.57;;;16.20;99.30;;;;;;5035081;28;20029;-78
2021/05/11 00:59:47;;;;;;;2.08;0.50;;;16.10;99.30;;;;;;5036435;28;20120;-79
2021/05/11 01:02:12;;;;;;;1.67;0.65;;;16.00;99.20;;;;;;5032610;28;20041;-79
2021/05/11 01:04:38;;;;;;;0.50;0.50;;;16.10;99.90;;;;;;5037255;28;20032;-79
2021/05/11 01:07:05;;;;;;;0.88;0.70;;;16.10;99.80;;;;;;5055165;28;20493;-78
2021/05/11 01:09:31;;;;;;;1.00;0.63;;;16.00;99.70;;;;;;5055412;28;20040;-79
2021/05/11 01:11:58;;;;;;;0.77;0.50;;;16.00;99.50;;;;;;5041766;28;20128;-79
2021/05/11 01:14:29;;;;;;;1.27;0.40;;;16.00;98.90;;;;;;5043314;28;20568;-78
2021/05/11 01:16:58;;;;;;;1.70;0.50;;;16.00;98.80;;;;;;5041426;28;20029;-78
2021/05/11 01:19:29;;;;;;;0.57;0.55;;;16.00;99.30;;;;;;5055298;28;20040;-79
2021/05/11 01:50:45;;;;;;;1.20;0.77;;;15.80;99.90;;;;;;5037979;28;20025;-78
2021/05/11 02:23:03;;;;;;;0.40;0.30;;;15.80;99.90;;;;;;5068839;28;20033;-78
2021/05/11 02:25:28;;;;;;;0.40;0.40;;;15.80;99.90;;;;;;5069119;28;20378;-78
2021/05/11 02:27:54;;;;;;;0.40;0.40;;;15.80;99.90;;;;;;5039007;28;20040;-78
2021/05/11 02:30:20;;;;;;;1.88;0.50;;;15.80;99.90;;;;;;5049510;28;20037;-78
2021/05/11 02:32:46;;;;;;;0.35;0.35;;;15.80;99.90;;;;;;5033579;28;20444;-79
2021/05/11 02:35:14;;;;;;;0.63;0.60;;;15.80;99.90;;;;;;5033202;28;20409;-78
2021/05/11 02:37:41;;;;;;;0.50;0.50;;;15.80;99.90;;;;;;5032562;28;20076;-79
2021/05/11 02:40:09;;;;;;;0.50;0.50;;;15.80;99.90;;;;;;5036233;28;20026;-78
2021/05/11 02:42:37;;;;;;;0.40;0.35;;;15.80;99.90;;;;;;5038436;28;20033;-78
2021/05/11 02:45:10;;;;;;;0.80;0.55;;;15.80;99.90;;;;;;5047420;28;20025;-78
2021/05/11 02:47:47;;;;;;;1.33;0.60;;;15.70;99.90;;;;;;5033704;28;20033;-79
2021/05/11 02:50:14;;;;;;;1.05;0.60;;;15.70;99.90;;;;;;5039319;28;20473;-79
2021/05/11 02:52:39;;;;;;;0.93;0.50;;;15.70;99.90;;;;;;5033941;28;20037;-78
2021/05/11 02:55:05;;;;;;;1.75;0.60;;;15.70;99.90;;;;;;5068298;28;20045;-78
2021/05/11 02:57:31;;;;;;;0.52;0.30;;;15.70;99.90;;;;;;5051864;28;20120;-79
2021/05/11 02:59:57;;;;;;;0.50;0.50;;;15.70;99.90;;;;;;5051635;28;20040;-79
2021/05/11 03:02:22;;;;;;;0.60;0.60;;;15.60;99.90;;;;;;5033377;28;20168;-79
2021/05/11 03:04:48;;;;;;;1.25;0.63;;;15.60;99.90;;;;;;5032855;28;20045;-79
2021/05/11 03:07:14;;;;;;;0.38;0.38;;;15.50;99.90;;;;;;5045076;28;20036;-78
2021/05/11 03:09:39;;;;;;;0.50;0.50;;;15.50;99.90;;;;;;5061036;28;20087;-79
2021/05/11 03:12:05;;;;;;;0.45;0.40;;;15.30;99.90;;;;;;5048543;28;20401;-80
2021/05/11 03:14:33;;;;;;;1.50;0.40;;;15.30;99.90;;;;;;5038050;28;20041;-80
2021/05/11 03:16:59;;;;;;;0.75;0.47;;;15.20;99.90;;;;;;5046697;28;20037;-79
2021/05/11 03:19:25;;;;;;;1.35;0.55;;;15.00;99.90;;;;;;5032809;28;20516;-78
2021/05/11 03:21:50;;;;;;;1.58;0.50;;;15.00;99.90;;;;;;5033051;28;20025;-78
2021/05/11 03:24:16;;;;;;;1.83;0.50;;;14.90;99.90;;;;;;5032871;28;20671;-78
2021/05/11 03:26:42;;;;;;;2.50;0.57;;;14.90;99.90;;;;;;5032388;28;20416;-78
2021/05/11 03:29:08;;;;;;;0.30;0.30;;;14.90;99.90;;;;;;5044443;28;20485;-80
2021/05/11 03:31:34;;;;;;;0.80;0.50;;;14.90;99.90;;;;;;5032825;28;20083;-79
2021/05/11 03:34:00;;;;;;;0.60;0.45;;;14.80;99.90;;;;;;5043331;28;20052;-79
2021/05/11 03:36:26;;;;;;;0.40;0.40;;;14.80;99.90;;;;;;5032036;28;20401;-78
2021/05/11 03:38:53;;;;;;;0.55;0.40;;;14.80;99.90;;;;;;5032686;28;20418;-78
2021/05/11 03:41:24;;;;;;;1.48;0.68;;;14.80;99.90;;;;;;5036163;28;20040;-79
2021/05/11 03:44:02;;;;;;;0.60;0.40;;;14.80;99.90;;;;;;5038065;28;20033;-80
2021/05/11 03:46:27;;;;;;;0.73;0.70;;;14.70;99.90;;;;;;5043582;28;20095;-78
2021/05/11 03:48:53;;;;;;;0.30;0.30;;;14.70;99.90;;;;;;5044804;28;20664;-78
2021/05/11 03:51:19;;;;;;;0.73;0.60;;;14.70;99.90;;;;;;5052185;28;20037;-78
2021/05/11 03:53:44;;;;;;;0.57;0.52;;;14.60;99.90;;;;;;5043151;28;20037;-79
2021/05/11 03:56:10;;;;;;;0.57;0.55;;;14.60;99.90;;;;;;5052007;28;20041;-79
2021/05/11 03:58:37;;;;;;;1.83;1.35;;;14.70;99.90;;;;;;5045000;28;20100;-79
2021/05/11 04:01:02;;;;;;;10.95;5.53;;;14.70;99.90;;;;;;5047085;28;20120;-79
2021/05/11 04:03:28;;;;;;;6.82;3.42;;;14.70;99.90;;;;;;5048290;28;20061;-80
2021/05/11 04:05:55;;;;;;;2.35;1.30;;;14.70;99.90;;;;;;5031059;28;20034;-78
2021/05/11 04:08:44;;;;;;;0.95;0.60;;;14.80;99.90;;;;;;5031994;28;20041;-78
2021/05/11 04:16:25;;;;;;;0.50;0.50;;;14.60;99.90;;;;;;5039436;28;20037;-78
2021/05/11 04:18:51;;;;;;;0.57;0.50;;;14.50;99.90;;;;;;5032257;28;20410;-78
2021/05/11 04:21:18;;;;;;;1.88;0.70;;;14.40;99.90;;;;;;5031737;28;20049;-79
2021/05/11 04:23:44;;;;;;;0.88;0.70;;;14.40;99.90;;;;;;5032161;28;20025;-79
2021/05/11 04:26:14;;;;;;;1.58;0.50;;;14.40;99.90;;;;;;5031828;28;20075;-78
2021/05/11 04:28:40;;;;;;;0.70;0.50;;;14.40;99.90;;;;;;5048383;28;20037;-79
2021/05/11 04:31:07;;;;;;;0.80;0.55;;;14.40;99.90;;;;;;5067076;28;20033;-78
2021/05/11 04:33:33;;;;;;;0.73;0.70;;;14.40;99.90;;;;;;5038717;28;20091;-78
2021/05/11 04:35:59;;;;;;;1.02;0.60;;;14.40;99.90;;;;;;5039532;28;20082;-78
2021/05/11 04:38:25;;;;;;;3.28;0.82;;;14.40;99.90;;;;;;5046231;28;20030;-78
2021/05/11 04:40:52;;;;;;;0.70;0.50;;;14.50;99.90;;;;;;5036204;28;20196;-79
2021/05/11 04:43:19;;;;;;;1.25;0.65;;;14.50;99.90;;;;;;5039250;28;20076;-79
2021/05/11 04:45:45;;;;;;;1.00;0.70;;;14.50;99.90;;;;;;5038585;28;20553;-79
2021/05/11 04:48:11;;;;;;;1.02;0.47;;;14.60;99.90;;;;;;5046950;28;20910;-78
2021/05/11 04:50:38;;;;;;;1.50;0.50;;;14.60;99.90;;;;;;5034683;28;20037;-78
2021/05/11 04:53:04;;;;;;;0.40;0.40;;;14.60;99.90;;;;;;5044438;28;20390;-78
2021/05/11 04:55:29;;;;;;;0.68;0.50;;;14.70;99.90;;;;;;5042035;28;20024;-79
2021/05/11 04:57:55;;;;;;;0.90;0.57;;;14.70;99.90;;;;;;5030803;28;20029;-79
2021/05/11 05:00:21;;;;;;;0.70;0.60;;;14.80;99.90;;;;;;5032829;28;20026;-78
2021/05/11 05:02:48;;;;;;;0.73;0.60;;;14.90;99.90;;;;;;5033788;28;20029;-79
2021/05/11 05:05:15;;;;;;;1.50;0.70;;;15.00;99.90;;;;;;5036486;28;20035;-78
2021/05/11 05:07:41;;;;;;;2.55;0.80;;;15.00;99.90;;;;;;5035429;28;20096;-79
2021/05/11 05:10:09;;;;;;;1.85;0.68;;;15.00;99.90;;;;;;5025203;28;20036;-80
2021/05/11 05:12:35;;;;;;;0.68;0.60;;;15.10;99.90;;;;;;5028015;28;20037;-78
2021/05/11 05:15:01;;;;;;;0.65;0.65;;;15.10;99.90;;;;;;5028869;28;20030;-78
2021/05/11 05:17:27;;;;;;;0.93;0.60;;;15.00;99.90;;;;;;5013614;28;20034;-80
2021/05/11 05:19:53;;;;;;;1.15;0.60;;;15.10;99.90;;;;;;5044639;28;20030;-79
2021/05/11 05:22:19;;;;;;;1.73;0.75;;;15.10;99.90;;;;;;5035204;28;20095;-79
2021/05/11 05:24:49;;;;;;;1.65;0.80;;;15.10;99.90;;;;;;5031270;28;20021;-80
2021/05/11 05:27:20;;;;;;;0.98;0.88;;;15.20;99.90;;;;;;5043831;28;20119;-79
2021/05/11 05:29:46;;;;;;;0.88;0.68;;;15.30;99.90;;;;;;5033679;28;20473;-79
2021/05/11 05:32:12;;;;;;;1.15;0.80;;;15.40;99.90;;;;;;5031130;28;20030;-78
2021/05/11 05:34:38;;;;;;;1.05;0.57;;;15.70;99.90;;;;;;5030508;28;20087;-79
2021/05/11 05:37:04;;;;;;;1.58;0.65;;;16.00;99.90;;;;;;5037970;28;20428;-79
2021/05/11 05:39:37;;;;;;;0.73;0.52;;;16.20;99.90;;;;;;5046896;28;20053;-78
2021/05/11 05:42:04;;;;;;;1.13;0.88;;;16.40;99.90;;;;;;5047701;28;20039;-78
2021/05/11 05:44:30;;;;;;;1.33;0.70;;;16.70;99.90;;;;;;5041175;28;20080;-79
2021/05/11 05:46:55;;;;;;;1.30;0.63;;;16.80;99.90;;;;;;5043187;28;20037;-79
2021/05/11 05:49:23;;;;;;;1.00;0.70;;;16.90;99.90;;;;;;5034893;28;20041;-78
2021/05/11 05:51:50;;;;;;;0.57;0.57;;;16.90;99.90;;;;;;5043023;28;20033;-79
2021/05/11 05:54:16;;;;;;;0.60;0.50;;;17.00;99.90;;;;;;5042795;28;20044;-78
2021/05/11 05:56:42;;;;;;;1.90;0.70;;;17.00;99.90;;;;;;5038566;28;20037;-79
2021/05/11 05:59:08;;;;;;;0.60;0.60;;;17.10;99.90;;;;;;5038814;28;20028;-79
2021/05/11 06:01:33;;;;;;;1.50;0.90;;;17.30;99.90;;;;;;5037636;28;20030;-79
2021/05/11 06:04:12;;;;;;;1.75;0.70;;;17.70;99.90;;;;;;5034960;28;20034;-79
2021/05/11 06:06:39;;;;;;;3.20;0.60;;;18.20;99.90;;;;;;5030175;28;20060;-79
2021/05/11 06:09:18;;;;;;;1.08;0.60;;;18.90;99.90;;;;;;5035343;28;20029;-79
2021/05/11 06:14:15;;;;;;;0.90;0.70;;;20.30;99.90;;;;;;5043618;28;20040;-79
2021/05/11 06:19:25;;;;;;;0.82;0.50;;;21.50;96.60;;;;;;5034549;28;20117;-79
2021/05/11 06:21:51;;;;;;;1.45;0.80;;;22.10;93.50;;;;;;5029836;28;20072;-79
2021/05/11 06:24:17;;;;;;;1.58;0.70;;;22.60;91.80;;;;;;5031739;28;20033;-78
2021/05/11 06:26:45;;;;;;;1.00;0.70;;;22.90;87.30;;;;;;5027726;28;20065;-80
2021/05/11 06:29:12;;;;;;;3.28;0.80;;;23.10;86.20;;;;;;5030180;28;20072;-79
2021/05/11 06:31:38;;;;;;;2.47;0.68;;;23.50;82.30;;;;;;5020390;28;20057;-77
2021/05/11 06:34:05;;;;;;;1.27;0.60;;;23.90;81.70;;;;;;5033838;28;20033;-78
2021/05/11 06:36:31;;;;;;;0.57;0.55;;;24.30;78.10;;;;;;5030504;28;20037;-78
2021/05/11 06:38:58;;;;;;;1.60;0.80;;;24.70;72.50;;;;;;5017260;28;20037;-76
2021/05/11 06:41:24;;;;;;;2.55;0.80;;;25.10;70.90;;;;;;5034261;28;20033;-77
2021/05/11 06:43:55;;;;;;;0.60;0.60;;;25.30;67.80;;;;;;5036095;28;20040;-76
2021/05/11 06:54:08;;;;;;;0.70;0.60;;;26.10;61.00;;;;;;5030582;28;20501;-76
2021/05/11 06:56:34;;;;;;;0.55;0.55;;;26.20;61.50;;;;;;5025297;28;20063;-77
2021/05/11 06:59:00;;;;;;;1.75;0.82;;;26.30;60.60;;;;;;5039600;28;20066;-77
2021/05/11 07:01:25;;;;;;;1.25;0.82;;;26.60;62.30;;;;;;5037439;28;20425;-78
2021/05/11 07:03:51;;;;;;;4.18;0.70;;;26.90;57.90;;;;;;5025158;28;20026;-77
2021/05/11 07:06:18;;;;;;;3.53;0.73;;;26.40;56.60;;;;;;5043626;28;20564;-78
2021/05/11 07:08:51;;;;;;;0.85;0.70;;;26.00;59.00;;;;;;5025150;28;20034;-75
2021/05/11 07:13:47;;;;;;;1.15;1.05;;;26.20;58.70;;;;;;5022583;28;20436;-76
2021/05/11 07:16:12;;;;;;;2.08;1.05;;;26.50;58.00;;;;;;5029826;28;20037;-77
2021/05/11 07:18:38;;;;;;;0.93;0.80;;;26.90;58.30;;;;;;5032400;28;20029;-75
2021/05/11 07:21:04;;;;;;;1.10;1.00;;;27.30;57.90;;;;;;5030386;28;20018;-76
2021/05/11 07:23:30;;;;;;;1.42;0.93;;;27.90;57.00;;;;;;5030369;28;20032;-77
2021/05/11 07:31:06;;;;;;;1.00;1.00;;;27.80;54.40;;;;;;5028974;28;20481;-77
2021/05/11 07:33:36;;;;;;;2.95;1.35;;;27.50;54.00;;;;;;5028461;28;20713;-76
2021/05/11 07:36:03;;;;;;;2.42;1.17;;;26.80;56.40;;;;;;5028059;28;20044;-76
2021/05/11 07:38:29;;;;;;;2.28;1.35;;;26.50;55.00;;;;;;5027170;28;20029;-76
2021/05/11 07:40:55;;;;;;;1.08;0.98;;;25.90;57.20;;;;;;5032215;28;20146;-76
2021/05/11 07:43:23;;;;;;;2.53;1.70;;;25.30;58.00;;;;;;5030077;28;20110;-77
2021/05/11 07:51:31;;;;;;;2.00;1.45;;;24.30;61.20;;;;;;5014150;28;20496;-76
2021/05/11 08:04:39;;;;;;;3.40;1.70;;;23.30;64.40;;;;;;5027045;28;20025;-77
2021/05/11 08:17:44;;;;;;;2.00;1.65;;;24.20;66.00;;;;;;5026190;28;20428;-76
2021/05/11 08:23:07;;;;;;;2.35;1.10;;;24.40;66.40;;;;;;5032560;28;20037;-77
2021/05/11 08:28:37;;;;;;;2.10;1.45;;;25.00;62.80;;;;;;4987074;28;20056;-77
2021/05/11 08:31:03;;;;;;;2.22;1.75;;;25.20;62.10;;;;;;4995999;28;20941;-77
2021/05/11 08:33:29;;;;;;;3.30;1.70;;;25.10;59.40;;;;;;5004812;28;20037;-77
2021/05/11 08:35:54;;;;;;;2.35;1.65;;;24.70;60.70;;;;;;5020132;28;20405;-77
2021/05/11 08:38:20;;;;;;;3.47;1.63;;;24.30;62.30;;;;;;5027256;28;20032;-77
2021/05/11 08:40:46;;;;;;;2.63;1.75;;;23.90;65.90;;;;;;5025048;28;20112;-76
2021/05/11 08:43:37;;;;;;;2.38;2.00;;;23.60;65.70;;;;;;5019615;28;20402;-78
2021/05/11 08:46:07;;;;;;;2.63;1.80;;;23.40;66.10;;;;;;5016105;28;20536;-76
2021/05/11 08:48:33;;;;;;;5.20;1.85;;;23.20;68.10;;;;;;5025158;28;20033;-76
2021/05/11 08:51:16;;;;;;;3.95;2.03;;;23.20;67.70;;;;;;5020070;28;20109;-77
2021/05/11 09:05:02;;;;;;;3.75;1.55;;;22.90;69.80;;;;;;5017111;28;20475;-77
2021/05/11 09:32:27;;;;;;;5.38;3.20;;;23.10;68.80;;;;;;5023734;28;20434;-77
2021/05/11 09:44:49;;;;;;;5.88;2.33;;;23.10;67.10;;;;;;5006036;28;20768;-77
2021/05/11 10:47:02;;;;;;;1.30;1.17;;;24.60;69.20;;;;;;5009747;28;20029;-77
2021/05/11 10:49:38;;;;;;;1.42;1.33;;;24.40;69.70;;;;;;5031888;28;20037;-76
2021/05/11 10:52:15;;;;;;;1.13;0.80;;;24.40;67.90;;;;;;5025091;28;20104;-77
2021/05/11 10:54:49;;;;;;;1.08;0.98;;;24.50;69.60;;;;;;5023488;28;20081;-76
2021/05/11 10:57:54;;;;;;;1.92;1.25;;;24.50;71.80;;;;;;5026870;28;20482;-77
2021/05/11 11:00:23;;;;;;;1.15;0.95;;;24.70;70.80;;;;;;5020761;28;20082;-78
2021/05/11 11:03:15;;;;;;;1.13;0.90;;;24.60;68.70;;;;;;5026720;28;20040;-78
2021/05/11 11:05:52;;;;;;;1.65;1.08;;;24.70;68.70;;;;;;5026529;28;20458;-77
2021/05/11 11:08:34;;;;;;;2.95;1.00;;;24.80;69.40;;;;;;5027067;28;20100;-76
2021/05/11 11:11:10;;;;;;;1.77;1.08;;;25.10;69.80;;;;;;5025680;28;20065;-76
2021/05/11 11:13:38;;;;;;;1.92;1.20;;;25.30;67.00;;;;;;5026160;28;20033;-76
2021/05/11 11:16:04;;;;;;;1.20;1.10;;;25.30;64.80;;;;;;5025710;28;20048;-78
2021/05/11 11:18:30;;;;;;;1.70;0.80;;;25.30;68.30;;;;;;5029182;28;20037;-77
2021/05/11 11:21:19;;;;;;;1.15;0.95;;;25.40;66.80;;;;;;5026874;28;20026;-77
2021/05/11 11:23:50;;;;;;;1.08;0.90;;;25.20;68.70;;;;;;5027319;28;20056;-76
2021/05/11 11:26:25;;;;;;;2.53;0.90;;;25.30;68.00;;;;;;5024977;28;20026;-75
2021/05/11 11:29:05;;;;;;;0.90;0.90;;;25.30;68.70;;;;;;5026484;28;20112;-78
2021/05/11 11:31:33;;;;;;;1.30;1.05;;;25.30;68.80;;;;;;5026481;28;20128;-76
2021/05/11 11:34:18;;;;;;;1.15;1.00;;;25.40;68.30;;;;;;5045660;28;20040;-76
2021/05/11 11:36:51;;;;;;;2.35;0.90;;;25.40;68.60;;;;;;5025487;28;20021;-77
2021/05/11 11:39:19;;;;;;;2.65;1.00;;;25.50;68.30;;;;;;5031474;28;20052;-77
2021/05/11 11:41:47;;;;;;;1.23;1.00;;;25.50;68.10;;;;;;5013647;28;20039;-77
2021/05/11 11:44:17;;;;;;;1.15;1.00;;;25.40;67.50;;;;;;5025330;28;20026;-76
2021/05/11 11:46:43;;;;;;;1.00;0.88;;;25.30;68.30;;;;;;5036626;28;20053;-77
2021/05/11 11:49:16;;;;;;;1.08;0.95;;;25.10;68.50;;;;;;5028454;28;20045;-77
2021/05/11 11:51:42;;;;;;;2.10;1.20;;;25.10;69.30;;;;;;5035603;28;20036;-76
2021/05/11 11:54:21;;;;;;;1.40;0.98;;;25.00;67.20;;;;;;5022583;28;20051;-77
2021/05/11 11:59:31;;;;;;;1.75;1.33;;;24.80;70.10;;;;;;5027391;28;20457;-77
2021/05/11 12:02:02;;;;;;;1.02;0.85;;;24.70;71.40;;;;;;5026084;28;20106;-76
2021/05/11 12:04:29;;;;;;;1.33;1.17;;;24.60;71.10;;;;;;5025674;28;20038;-76
2021/05/11 12:07:02;;;;;;;0.80;0.80;;;24.50;72.90;;;;;;5026329;28;20627;-76
2021/05/11 12:09:28;;;;;;;0.95;0.90;;;24.60;74.00;;;;;;5028749;28;20142;-77
2021/05/11 12:11:54;;;;;;;1.25;0.82;;;24.70;72.40;;;;;;5024676;28;20501;-76
2021/05/11 12:14:20;;;;;;;2.47;0.73;;;24.90;71.40;;;;;;5028534;28;20044;-77
2021/05/11 12:16:47;;;;;;;1.48;0.90;;;24.90;71.20;;;;;;5028385;28;20680;-76
2021/05/11 12:19:17;;;;;;;1.00;0.73;;;25.00;71.40;;;;;;5027271;28;20176;-76
2021/05/11 12:22:04;;;;;;;2.90;0.88;;;25.00;73.40;;;;;;5027282;28;20116;-76
2021/05/11 12:24:39;;;;;;;1.48;1.10;;;25.00;70.30;;;;;;5028591;28;20036;-76
2021/05/11 12:27:18;;;;;;;1.55;1.00;;;25.00;70.00;;;;;;5023160;28;20026;-76
2021/05/11 12:30:06;;;;;;;1.52;0.80;;;24.90;70.70;;;;;;5024083;28;20038;-76
2021/05/11 12:32:33;;;;;;;1.00;0.77;;;24.70;70.50;;;;;;5027758;28;20026;-76
2021/05/11 12:35:03;;;;;;;1.10;1.00;;;24.60;72.60;;;;;;5016061;28;20037;-76
2021/05/11 12:37:55;;;;;;;1.30;1.20;;;24.50;72.20;;;;;;5038751;22;20042;-77
2021/05/11 12:40:28;;;;;;;2.55;0.98;;;24.50;72.30;;;;;;5007079;28;20030;-76
2021/05/11 12:42:58;;;;;;;1.60;1.13;;;24.40;73.10;;;;;;5008560;28;20026;-78
2021/05/11 12:45:25;;;;;;;2.80;0.90;;;24.40;74.00;;;;;;5027106;28;20105;-76
2021/05/11 12:47:53;;;;;;;1.77;0.95;;;24.30;73.90;;;;;;5018790;28;20084;-76
2021/05/11 12:50:26;;;;;;;1.50;1.15;;;24.30;75.00;;;;;;4989024;28;20485;-78
2021/05/11 12:52:52;;;;;;;1.05;0.80;;;24.40;75.20;;;;;;4997098;28;20030;-77
2021/05/11 12:55:53;;;;;;;1.35;1.02;;;24.40;74.40;;;;;;5019609;28;20038;-78
2021/05/11 13:01:08;;;;;;;1.88;1.38;;;24.40;73.90;;;;;;4989717;28;20651;-78
2021/05/11 13:03:45;;;;;;;1.00;1.00;;;24.20;72.80;;;;;;5012199;28;20034;-78
2021/05/11 13:17:01;;;;;;;1.33;1.00;;;23.30;76.10;;;;;;4996519;28;20038;-78
2021/05/11 13:27:52;;;;;;;2.72;1.10;;;22.90;79.10;;;;;;4993289;28;20160;-78
2021/05/11 13:30:33;;;;;;;1.95;1.33;;;22.90;78.70;;;;;;4991544;28;20453;-78
2021/05/11 13:35:34;;;;;;;1.42;1.30;;;23.10;79.00;;;;;;4994261;28;20429;-78
2021/05/11 13:38:00;;;;;;;3.08;1.45;;;23.30;78.90;;;;;;5011332;28;20022;-77
2021/05/11 13:40:26;;;;;;;1.50;0.95;;;23.50;77.70;;;;;;5011771;28;20029;-78
2021/05/11 13:42:52;;;;;;;2.60;1.10;;;23.80;76.40;;;;;;4992198;28;20065;-77
2021/05/11 13:45:18;;;;;;;1.80;1.17;;;24.00;75.80;;;;;;5011278;28;20029;-77
2021/05/11 13:47:56;;;;;;;3.05;1.30;;;24.20;75.80;;;;;;4995406;28;20034;-78
2021/05/11 13:50:29;;;;;;;1.40;1.25;;;24.30;74.00;;;;;;5007871;28;20034;-77
2021/05/11 13:52:55;;;;;;;2.00;1.30;;;24.30;72.60;;;;;;4984547;28;20037;-79
2021/05/11 13:55:26;;;;;;;3.47;1.15;;;24.20;74.00;;;;;;4982600;28;20038;-77
2021/05/11 14:03:20;;;;;;;1.30;0.98;;;23.80;75.90;;;;;;4993603;28;20026;-77
2021/05/11 14:05:46;;;;;;;0.98;0.90;;;23.60;77.30;;;;;;4992719;28;20033;-78
2021/05/11 14:08:12;;;;;;;1.90;1.15;;;23.60;77.70;;;;;;5008227;28;20560;-77
2021/05/11 14:10:37;;;;;;;1.20;1.10;;;23.50;77.20;;;;;;4966188;28;20025;-77
2021/05/11 14:13:03;;;;;;;1.65;1.20;;;23.40;78.00;;;;;;4992708;28;20536;-79
2021/05/11 14:15:29;;;;;;;1.38;1.00;;;23.30;78.10;;;;;;5009360;28;20399;-77
2021/05/11 14:17:56;;;;;;;1.23;1.10;;;23.20;78.30;;;;;;4997026;28;20034;-78
2021/05/11 14:20:22;;;;;;;1.90;1.10;;;23.10;77.80;;;;;;5000870;28;20049;-78
2021/05/11 14:22:48;;;;;;;1.52;1.40;;;22.80;78.60;;;;;;5000855;28;20401;-78
2021/05/11 14:25:13;;;;;;;1.35;1.20;;;22.50;79.50;;;;;;5012846;28;20034;-77
2021/05/11 14:27:39;;;;;;;2.08;1.90;;;22.30;80.90;;;;;;5014537;28;20839;-78
2021/05/11 14:30:06;;;;;;;1.52;1.33;;;22.10;81.90;;;;;;5013771;28;20041;-77
2021/05/11 14:32:31;;;;;;;2.30;1.50;;;22.00;82.90;;;;;;5012525;28;20201;-77
2021/05/11 14:34:57;;;;;;;2.45;1.25;;;21.80;82.80;;;;;;5014379;28;20061;-77
2021/05/11 14:37:23;;;;;;;2.03;1.33;;;21.70;83.60;;;;;;4985040;28;20409;-76
2021/05/11 14:39:48;;;;;;;1.33;1.20;;;21.60;85.10;;;;;;4993254;28;20026;-78
2021/05/11 14:42:14;;;;;;;1.15;1.05;;;21.50;85.30;;;;;;4997450;28;20046;-78
2021/05/11 14:44:40;;;;;;;1.77;1.42;;;21.40;86.20;;;;;;5013694;28;20037;-78
2021/05/11 14:47:06;;;;;;;1.25;1.15;;;21.40;87.10;;;;;;5014402;28;20038;-78
2021/05/11 14:49:32;;;;;;;1.30;1.20;;;21.30;87.70;;;;;;4994419;28;20053;-78
2021/05/11 14:51:58;;;;;;;2.70;1.70;;;21.30;88.90;;;;;;4995850;28;20026;-78
2021/05/11 14:54:24;;;;;;;2.40;1.10;;;21.20;89.80;;;;;;4982189;28;20612;-79
2021/05/11 14:56:50;;;;;;;8.20;1.58;;;21.10;90.50;;;;;;4996659;28;20052;-78
2021/05/11 14:59:15;;;;;;;1.48;1.27;;;21.00;91.10;;;;;;4996758;28;20034;-77
2021/05/11 15:01:41;;;;;;;3.53;1.70;;;21.00;91.00;;;;;;4981085;28;20041;-78
2021/05/11 15:04:07;;;;;;;2.45;1.20;;;21.10;91.60;;;;;;4990319;28;20034;-78
2021/05/11 15:06:34;;;;;;;1.33;1.23;;;21.20;91.50;;;;;;4999836;28;20387;-77
2021/05/11 15:09:00;;;;;;;1.67;1.58;;;21.50;91.30;;;;;;4974115;28;20034;-77
2021/05/11 15:11:26;;;;;;;1.67;1.40;;;21.80;91.00;;;;;;4990610;28;20331;-78
2021/05/11 15:13:54;;;;;;;1.58;1.48;;;22.00;88.70;;;;;;5006142;28;20504;-78
2021/05/11 15:16:21;;;;;;;1.90;1.30;;;22.20;89.00;;;;;;5006222;28;20080;-79
2021/05/11 15:18:48;;;;;;;1.55;1.30;;;22.40;88.40;;;;;;4987962;28;20026;-76
2021/05/11 15:21:15;;;;;;;1.55;1.40;;;22.50;86.80;;;;;;5007122;28;20026;-77
2021/05/11 15:23:41;;;;;;;1.67;1.58;;;22.70;86.10;;;;;;4989466;28;20092;-77
2021/05/11 15:26:12;;;;;;;3.10;1.52;;;22.60;85.30;;;;;;4973426;28;20030;-78
2021/05/11 15:28:37;;;;;;;2.15;1.65;;;22.50;84.90;;;;;;5007080;28;20022;-78
2021/05/11 15:31:04;;;;;;;2.72;1.90;;;22.50;86.00;;;;;;5008152;28;21015;-78
2021/05/11 15:33:30;;;;;;;1.40;1.30;;;22.40;86.90;;;;;;4994369;28;20100;-79
2021/05/11 15:35:58;;;;;;;1.95;1.65;;;22.30;86.40;;;;;;5009853;28;20101;-78
2021/05/11 15:38:25;;;;;;;4.93;1.80;;;22.30;87.00;;;;;;4976684;28;20104;-78
2021/05/11 15:40:51;;;;;;;2.20;1.90;;;22.20;86.60;;;;;;4998615;28;20197;-78
2021/05/11 15:43:17;;;;;;;2.78;2.55;;;22.30;85.90;;;;;;5002588;28;20109;-78
2021/05/11 15:45:42;;;;;;;2.40;2.00;;;22.20;85.50;;;;;;4994475;28;20397;-78
2021/05/11 15:48:09;;;;;;;3.90;2.05;;;22.20;85.90;;;;;;4999722;28;20113;-78
2021/05/11 15:50:42;;;;;;;2.05;1.67;;;22.20;86.90;;;;;;5004448;28;20109;-79
2021/05/11 15:53:13;;;;;;;2.55;1.95;;;22.20;86.80;;;;;;5012346;28;20034;-78
2021/05/11 15:55:41;;;;;;;2.53;2.20;;;22.20;87.40;;;;;;5009993;28;20041;-78
2021/05/11 15:58:09;;;;;;;2.50;2.05;;;22.20;87.00;;;;;;5003570;28;20034;-79
2021/05/11 16:00:36;;;;;;;2.03;1.67;;;22.20;86.10;;;;;;4986544;28;20084;-78
2021/05/11 16:03:05;;;;;;;1.83;1.70;;;22.20;86.70;;;;;;4999944;28;20487;-79
2021/05/11 16:05:35;;;;;;;2.55;2.25;;;22.00;87.50;;;;;;5005259;28;20042;-79
2021/05/11 16:08:02;;;;;;;2.35;2.15;;;22.00;87.80;;;;;;5007100;28;20117;-78
2021/05/11 16:10:28;;;;;;;2.33;2.10;;;21.90;88.30;;;;;;4992549;28;20446;-79
2021/05/11 16:12:55;;;;;;;2.75;2.25;;;21.80;88.70;;;;;;4996914;28;20077;-79
2021/05/11 16:15:22;;;;;;;2.00;1.80;;;21.70;88.90;;;;;;4975425;28;20042;-79
2021/05/11 16:17:48;;;;;;;2.97;2.28;;;21.60;89.20;;;;;;4998826;28;20434;-78
2021/05/11 16:20:14;;;;;;;2.70;2.50;;;21.40;89.80;;;;;;4990168;28;20038;-79
2021/05/11 16:22:41;;;;;;;2.50;2.03;;;21.30;90.20;;;;;;4998446;28;20061;-78
2021/05/11 16:25:09;;;;;;;2.25;2.10;;;21.10;90.60;;;;;;5012080;28;20037;-79
2021/05/11 16:27:35;;;;;;;4.45;2.50;;;21.00;91.00;;;;;;4967478;28;20039;-79
2021/05/11 16:30:02;;;;;;;2.67;2.47;;;20.80;91.30;;;;;;5004128;28;20041;-78
2021/05/11 16:32:27;;;;;;;4.80;2.38;;;20.70;91.70;;;;;;5010933;28;20552;-79
2021/05/11 16:34:53;;;;;;;3.80;2.45;;;20.60;92.00;;;;;;4990006;28;20030;-78
2021/05/11 16:37:19;;;;;;;2.88;2.67;;;20.50;92.20;;;;;;5009543;28;20097;-78
2021/05/11 16:39:45;;;;;;;5.40;2.97;;;20.40;92.30;;;;;;4992453;28;20510;-77
2021/05/11 16:42:10;;;;;;;2.97;2.58;;;20.30;92.50;;;;;;4997684;28;20030;-78
2021/05/11 16:44:36;;;;;;;4.15;3.33;;;20.20;92.80;;;;;;5000933;28;20932;-78
2021/05/11 16:47:03;;;;;;;3.80;3.42;;;20.10;92.60;;;;;;5003394;28;20044;-77
2021/05/11 16:49:29;;;;;;;3.53;3.22;;;20.00;93.10;;;;;;5005082;28;20034;-77
2021/05/11 16:51:55;;;;;;;2.95;2.67;;;19.90;93.10;;;;;;5005781;28;20018;-76
2021/05/11 16:54:21;;;;;;;2.80;2.60;;;19.90;93.30;;;;;;4987246;28;20034;-76
2021/05/11 16:56:47;;;;;;;3.58;3.17;;;19.70;93.60;;;;;;4982770;28;20084;-76
2021/05/11 16:59:13;;;;;;;4.13;3.40;;;19.70;93.30;;;;;;5005221;28;20022;-77
2021/05/11 17:01:39;;;;;;;3.25;2.88;;;19.60;93.30;;;;;;4988210;28;20058;-78
2021/05/11 17:04:05;;;;;;;3.33;2.67;;;19.50;93.80;;;;;;4989166;28;20021;-76
2021/05/11 17:06:33;;;;;;;4.72;3.22;;;19.40;93.90;;;;;;5004969;28;20061;-77
2021/05/11 17:09:04;;;;;;;3.45;3.15;;;19.30;94.00;;;;;;4972132;28;20398;-77